sensor_id;sensor_type;location;lat;lon;timestamp;P1;durP1;ratioP1;P2;durP2;ratioP2
19507;SDS011;40157;42.566;27.526;2023-03-14T00:01:30;8.47;;;4.17;;
19507;SDS011;40157;42.566;27.526;2023-03-14T00:03:30;8.33;;;4.13;;
19507;SDS011;40157;42.566;27.526;2023-03-14T00:05:33;9.60;;;4.33;;
19507;SDS011;40157;42.566;27.526;2023-03-14T00:07:34;13.53;;;5.23;;
19507;SDS011;40157;42.566;27.526;2023-03-14T00:09:36;13.20;;;6.60;;
19507;SDS011;40157;42.566;27.526;2023-03-14T00:11:37;16.33;;;7.10;;
19507;SDS011;40157;42.566;27.526;2023-03-14T00:13:37;17.67;;;8.53;;
19507;SDS011;40157;42.566;27.526;2023-03-14T00:15:38;17.13;;;8.47;;
19507;SDS011;40157;42.566;27.526;2023-03-14T00:17:38;16.37;;;8.20;;
19507;SDS011;40157;42.566;27.526;2023-03-14T00:19:39;12.60;;;7.30;;
19507;SDS011;40157;42.566;27.526;2023-03-14T00:21:40;13.83;;;6.93;;
19507;SDS011;40157;42.566;27.526;2023-03-14T00:23:41;16.10;;;6.77;;
19507;SDS011;40157;42.566;27.526;2023-03-14T00:25:42;13.30;;;7.30;;
19507;SDS011;40157;42.566;27.526;2023-03-14T00:27:42;17.47;;;7.50;;
19507;SDS011;40157;42.566;27.526;2023-03-14T00:29:43;16.33;;;8.53;;
19507;SDS011;40157;42.566;27.526;2023-03-14T00:31:43;24.93;;;8.83;;
19507;SDS011;40157;42.566;27.526;2023-03-14T00:33:44;15.67;;;9.03;;
19507;SDS011;40157;42.566;27.526;2023-03-14T00:35:59;20.00;;;11.17;;
19507;SDS011;40157;42.566;27.526;2023-03-14T00:38:01;26.37;;;13.80;;
19507;SDS011;40157;42.566;27.526;2023-03-14T00:40:01;36.07;;;17.23;;
19507;SDS011;40157;42.566;27.526;2023-03-14T00:42:02;36.50;;;17.93;;
19507;SDS011;40157;42.566;27.526;2023-03-14T00:44:02;30.47;;;14.73;;
19507;SDS011;40157;42.566;27.526;2023-03-14T00:46:03;27.63;;;14.00;;
19507;SDS011;40157;42.566;27.526;2023-03-14T00:48:04;28.77;;;13.53;;
19507;SDS011;40157;42.566;27.526;2023-03-14T00:50:05;23.83;;;12.27;;
19507;SDS011;40157;42.566;27.526;2023-03-14T00:52:06;24.87;;;13.10;;
19507;SDS011;40157;42.566;27.526;2023-03-14T00:54:07;26.13;;;12.63;;
19507;SDS011;40157;42.566;27.526;2023-03-14T00:56:08;21.53;;;11.37;;
19507;SDS011;40157;42.566;27.526;2023-03-14T00:58:11;21.07;;;10.70;;
19507;SDS011;40157;42.566;27.526;2023-03-14T01:00:13;20.27;;;9.90;;
19507;SDS011;40157;42.566;27.526;2023-03-14T01:02:14;18.27;;;8.80;;
19507;SDS011;40157;42.566;27.526;2023-03-14T01:04:15;18.13;;;8.57;;
19507;SDS011;40157;42.566;27.526;2023-03-14T01:06:16;18.23;;;9.93;;
19507;SDS011;40157;42.566;27.526;2023-03-14T01:08:18;27.83;;;15.27;;
19507;SDS011;40157;42.566;27.526;2023-03-14T01:10:19;38.43;;;19.70;;
19507;SDS011;40157;42.566;27.526;2023-03-14T01:12:19;26.27;;;15.13;;
19507;SDS011;40157;42.566;27.526;2023-03-14T01:14:20;21.17;;;11.40;;
19507;SDS011;40157;42.566;27.526;2023-03-14T01:16:21;16.07;;;8.70;;
19507;SDS011;40157;42.566;27.526;2023-03-14T01:18:23;16.33;;;8.80;;
19507;SDS011;40157;42.566;27.526;2023-03-14T01:20:24;16.50;;;8.97;;
19507;SDS011;40157;42.566;27.526;2023-03-14T01:22:25;17.57;;;9.97;;
19507;SDS011;40157;42.566;27.526;2023-03-14T01:24:26;18.57;;;10.03;;
19507;SDS011;40157;42.566;27.526;2023-03-14T01:26:27;16.70;;;9.37;;
19507;SDS011;40157;42.566;27.526;2023-03-14T01:28:30;23.07;;;9.70;;
19507;SDS011;40157;42.566;27.526;2023-03-14T01:30:30;18.73;;;10.20;;
19507;SDS011;40157;42.566;27.526;2023-03-14T01:32:31;18.97;;;10.33;;
19507;SDS011;40157;42.566;27.526;2023-03-14T01:34:31;21.57;;;10.27;;
19507;SDS011;40157;42.566;27.526;2023-03-14T01:36:31;14.87;;;8.33;;
19507;SDS011;40157;42.566;27.526;2023-03-14T01:38:32;14.93;;;7.10;;
19507;SDS011;40157;42.566;27.526;2023-03-14T01:40:34;17.83;;;6.43;;
19507;SDS011;40157;42.566;27.526;2023-03-14T01:42:57;13.87;;;6.20;;
19507;SDS011;40157;42.566;27.526;2023-03-14T01:45:53;10.90;;;5.57;;
19507;SDS011;40157;42.566;27.526;2023-03-14T01:47:45;11.67;;;5.27;;
19507;SDS011;40157;42.566;27.526;2023-03-14T01:49:50;13.40;;;6.00;;
19507;SDS011;40157;42.566;27.526;2023-03-14T01:52:34;12.17;;;5.87;;
19507;SDS011;40157;42.566;27.526;2023-03-14T01:54:43;23.90;;;9.03;;
19507;SDS011;40157;42.566;27.526;2023-03-14T01:56:49;28.10;;;13.33;;
19507;SDS011;40157;42.566;27.526;2023-03-14T01:58:53;31.03;;;17.00;;
19507;SDS011;40157;42.566;27.526;2023-03-14T02:00:55;35.33;;;19.63;;
19507;SDS011;40157;42.566;27.526;2023-03-14T02:03:16;45.57;;;22.03;;
19507;SDS011;40157;42.566;27.526;2023-03-14T02:05:19;42.67;;;21.20;;
19507;SDS011;40157;42.566;27.526;2023-03-14T02:07:24;34.50;;;17.57;;
19507;SDS011;40157;42.566;27.526;2023-03-14T02:09:32;21.30;;;11.53;;
19507;SDS011;40157;42.566;27.526;2023-03-14T02:11:32;18.37;;;7.67;;
19507;SDS011;40157;42.566;27.526;2023-03-14T02:13:33;17.20;;;6.47;;
19507;SDS011;40157;42.566;27.526;2023-03-14T02:15:34;10.33;;;4.77;;
19507;SDS011;40157;42.566;27.526;2023-03-14T02:17:35;8.43;;;4.30;;
19507;SDS011;40157;42.566;27.526;2023-03-14T02:19:41;8.63;;;3.97;;
19507;SDS011;40157;42.566;27.526;2023-03-14T02:22:07;8.83;;;3.70;;
19507;SDS011;40157;42.566;27.526;2023-03-14T02:26:22;7.77;;;3.60;;
19507;SDS011;40157;42.566;27.526;2023-03-14T02:28:28;6.13;;;2.93;;
19507;SDS011;40157;42.566;27.526;2023-03-14T02:30:30;11.23;;;3.70;;
19507;SDS011;40157;42.566;27.526;2023-03-14T02:32:33;15.47;;;3.43;;
19507;SDS011;40157;42.566;27.526;2023-03-14T02:34:35;6.37;;;3.20;;
19507;SDS011;40157;42.566;27.526;2023-03-14T02:36:36;4.47;;;2.70;;
19507;SDS011;40157;42.566;27.526;2023-03-14T02:38:47;5.50;;;2.90;;
19507;SDS011;40157;42.566;27.526;2023-03-14T02:40:53;5.47;;;2.27;;
19507;SDS011;40157;42.566;27.526;2023-03-14T02:42:54;6.17;;;3.07;;
19507;SDS011;40157;42.566;27.526;2023-03-14T02:44:57;4.17;;;2.50;;
19507;SDS011;40157;42.566;27.526;2023-03-14T02:47:20;5.90;;;3.23;;
19507;SDS011;40157;42.566;27.526;2023-03-14T02:49:26;6.67;;;2.67;;
19507;SDS011;40157;42.566;27.526;2023-03-14T02:51:30;5.93;;;2.67;;
19507;SDS011;40157;42.566;27.526;2023-03-14T02:53:35;7.33;;;2.83;;
19507;SDS011;40157;42.566;27.526;2023-03-14T02:55:37;6.30;;;2.67;;
19507;SDS011;40157;42.566;27.526;2023-03-14T02:57:37;5.67;;;2.80;;
19507;SDS011;40157;42.566;27.526;2023-03-14T02:59:38;12.23;;;3.20;;
19507;SDS011;40157;42.566;27.526;2023-03-14T03:01:38;5.80;;;2.60;;
19507;SDS011;40157;42.566;27.526;2023-03-14T03:03:39;4.17;;;2.60;;
19507;SDS011;40157;42.566;27.526;2023-03-14T03:05:39;7.50;;;2.67;;
19507;SDS011;40157;42.566;27.526;2023-03-14T03:07:40;3.70;;;2.03;;
19507;SDS011;40157;42.566;27.526;2023-03-14T03:09:40;4.37;;;2.27;;
19507;SDS011;40157;42.566;27.526;2023-03-14T03:11:41;4.90;;;2.50;;
19507;SDS011;40157;42.566;27.526;2023-03-14T03:13:41;6.17;;;2.67;;
19507;SDS011;40157;42.566;27.526;2023-03-14T03:15:42;4.23;;;2.43;;
19507;SDS011;40157;42.566;27.526;2023-03-14T03:17:43;7.57;;;2.43;;
19507;SDS011;40157;42.566;27.526;2023-03-14T03:19:43;3.90;;;2.13;;
19507;SDS011;40157;42.566;27.526;2023-03-14T03:21:44;7.37;;;2.23;;
19507;SDS011;40157;42.566;27.526;2023-03-14T03:23:44;4.83;;;2.33;;
19507;SDS011;40157;42.566;27.526;2023-03-14T03:25:49;4.97;;;2.30;;
19507;SDS011;40157;42.566;27.526;2023-03-14T03:27:50;11.60;;;3.80;;
19507;SDS011;40157;42.566;27.526;2023-03-14T03:29:50;8.93;;;3.97;;
19507;SDS011;40157;42.566;27.526;2023-03-14T03:31:51;10.50;;;4.50;;
19507;SDS011;40157;42.566;27.526;2023-03-14T03:33:52;11.90;;;5.17;;
19507;SDS011;40157;42.566;27.526;2023-03-14T03:35:53;14.10;;;5.83;;
19507;SDS011;40157;42.566;27.526;2023-03-14T03:37:53;16.33;;;7.00;;
19507;SDS011;40157;42.566;27.526;2023-03-14T03:39:54;18.57;;;8.60;;
19507;SDS011;40157;42.566;27.526;2023-03-14T03:41:54;20.57;;;10.37;;
19507;SDS011;40157;42.566;27.526;2023-03-14T03:43:55;34.97;;;14.40;;
19507;SDS011;40157;42.566;27.526;2023-03-14T03:45:56;39.43;;;17.60;;
19507;SDS011;40157;42.566;27.526;2023-03-14T03:47:56;55.27;;;26.03;;
19507;SDS011;40157;42.566;27.526;2023-03-14T03:49:57;43.73;;;23.23;;
19507;SDS011;40157;42.566;27.526;2023-03-14T03:51:57;36.53;;;19.67;;
19507;SDS011;40157;42.566;27.526;2023-03-14T03:53:59;28.20;;;13.63;;
19507;SDS011;40157;42.566;27.526;2023-03-14T03:55:59;27.17;;;10.90;;
19507;SDS011;40157;42.566;27.526;2023-03-14T03:58:00;20.93;;;8.50;;
19507;SDS011;40157;42.566;27.526;2023-03-14T04:00:01;15.30;;;7.53;;
19507;SDS011;40157;42.566;27.526;2023-03-14T04:02:04;17.10;;;7.17;;
19507;SDS011;40157;42.566;27.526;2023-03-14T04:04:04;16.83;;;7.93;;
19507;SDS011;40157;42.566;27.526;2023-03-14T04:06:06;13.90;;;6.73;;
19507;SDS011;40157;42.566;27.526;2023-03-14T04:08:11;12.33;;;5.17;;
19507;SDS011;40157;42.566;27.526;2023-03-14T04:10:12;11.13;;;4.80;;
19507;SDS011;40157;42.566;27.526;2023-03-14T04:12:12;12.27;;;5.67;;
19507;SDS011;40157;42.566;27.526;2023-03-14T04:14:13;21.57;;;7.77;;
19507;SDS011;40157;42.566;27.526;2023-03-14T04:16:23;18.97;;;7.37;;
19507;SDS011;40157;42.566;27.526;2023-03-14T04:18:25;12.13;;;5.40;;
19507;SDS011;40157;42.566;27.526;2023-03-14T04:20:25;9.77;;;5.20;;
19507;SDS011;40157;42.566;27.526;2023-03-14T04:22:26;11.53;;;5.40;;
19507;SDS011;40157;42.566;27.526;2023-03-14T04:24:26;12.13;;;6.73;;
19507;SDS011;40157;42.566;27.526;2023-03-14T04:26:27;15.87;;;7.63;;
19507;SDS011;40157;42.566;27.526;2023-03-14T04:28:27;19.43;;;8.20;;
19507;SDS011;40157;42.566;27.526;2023-03-14T04:30:28;15.20;;;6.60;;
19507;SDS011;40157;42.566;27.526;2023-03-14T04:32:29;10.17;;;5.53;;
19507;SDS011;40157;42.566;27.526;2023-03-14T04:34:30;13.43;;;5.70;;
19507;SDS011;40157;42.566;27.526;2023-03-14T04:36:30;13.37;;;5.50;;
19507;SDS011;40157;42.566;27.526;2023-03-14T04:38:31;13.93;;;5.73;;
19507;SDS011;40157;42.566;27.526;2023-03-14T04:40:31;11.87;;;5.37;;
19507;SDS011;40157;42.566;27.526;2023-03-14T04:42:32;15.17;;;5.57;;
19507;SDS011;40157;42.566;27.526;2023-03-14T04:44:35;11.70;;;6.40;;
19507;SDS011;40157;42.566;27.526;2023-03-14T04:46:36;9.77;;;5.20;;
19507;SDS011;40157;42.566;27.526;2023-03-14T04:48:36;16.43;;;6.00;;
19507;SDS011;40157;42.566;27.526;2023-03-14T04:50:38;12.47;;;6.30;;
19507;SDS011;40157;42.566;27.526;2023-03-14T04:52:39;11.83;;;6.57;;
19507;SDS011;40157;42.566;27.526;2023-03-14T04:54:39;18.67;;;9.20;;
19507;SDS011;40157;42.566;27.526;2023-03-14T04:56:39;17.23;;;9.33;;
19507;SDS011;40157;42.566;27.526;2023-03-14T04:58:40;17.77;;;8.87;;
19507;SDS011;40157;42.566;27.526;2023-03-14T05:00:40;19.90;;;9.77;;
19507;SDS011;40157;42.566;27.526;2023-03-14T05:02:41;26.83;;;10.40;;
19507;SDS011;40157;42.566;27.526;2023-03-14T05:04:41;24.40;;;10.60;;
19507;SDS011;40157;42.566;27.526;2023-03-14T05:06:42;25.77;;;13.93;;
19507;SDS011;40157;42.566;27.526;2023-03-14T05:08:42;29.73;;;13.27;;
19507;SDS011;40157;42.566;27.526;2023-03-14T05:10:43;22.50;;;11.00;;
19507;SDS011;40157;42.566;27.526;2023-03-14T05:12:43;28.93;;;13.47;;
19507;SDS011;40157;42.566;27.526;2023-03-14T05:14:43;27.70;;;12.73;;
19507;SDS011;40157;42.566;27.526;2023-03-14T05:16:44;22.77;;;11.40;;
19507;SDS011;40157;42.566;27.526;2023-03-14T05:18:44;22.83;;;11.53;;
19507;SDS011;40157;42.566;27.526;2023-03-14T05:20:45;21.90;;;11.47;;
19507;SDS011;40157;42.566;27.526;2023-03-14T05:22:45;17.57;;;9.43;;
19507;SDS011;40157;42.566;27.526;2023-03-14T05:24:46;15.43;;;7.67;;
19507;SDS011;40157;42.566;27.526;2023-03-14T05:26:47;14.83;;;8.77;;
19507;SDS011;40157;42.566;27.526;2023-03-14T05:28:47;25.97;;;14.53;;
19507;SDS011;40157;42.566;27.526;2023-03-14T05:30:48;28.60;;;15.80;;
19507;SDS011;40157;42.566;27.526;2023-03-14T05:32:48;34.17;;;14.47;;
19507;SDS011;40157;42.566;27.526;2023-03-14T05:34:49;22.53;;;11.70;;
19507;SDS011;40157;42.566;27.526;2023-03-14T05:36:49;25.50;;;12.73;;
19507;SDS011;40157;42.566;27.526;2023-03-14T05:38:50;21.37;;;9.37;;
19507;SDS011;40157;42.566;27.526;2023-03-14T05:40:50;15.93;;;7.30;;
19507;SDS011;40157;42.566;27.526;2023-03-14T05:42:51;22.10;;;13.03;;
19507;SDS011;40157;42.566;27.526;2023-03-14T05:44:52;19.27;;;7.83;;
19507;SDS011;40157;42.566;27.526;2023-03-14T05:46:55;12.73;;;7.57;;
19507;SDS011;40157;42.566;27.526;2023-03-14T05:48:58;9.20;;;5.57;;
19507;SDS011;40157;42.566;27.526;2023-03-14T05:51:02;9.60;;;4.73;;
19507;SDS011;40157;42.566;27.526;2023-03-14T05:53:03;15.83;;;7.93;;
19507;SDS011;40157;42.566;27.526;2023-03-14T05:55:03;13.03;;;7.70;;
19507;SDS011;40157;42.566;27.526;2023-03-14T05:57:05;8.33;;;4.30;;
19507;SDS011;40157;42.566;27.526;2023-03-14T05:59:05;27.97;;;13.40;;
19507;SDS011;40157;42.566;27.526;2023-03-14T06:01:08;25.23;;;13.10;;
19507;SDS011;40157;42.566;27.526;2023-03-14T06:03:09;26.57;;;15.37;;
19507;SDS011;40157;42.566;27.526;2023-03-14T06:05:09;20.77;;;11.20;;
19507;SDS011;40157;42.566;27.526;2023-03-14T06:07:10;12.83;;;6.20;;
19507;SDS011;40157;42.566;27.526;2023-03-14T06:09:10;9.53;;;5.77;;
19507;SDS011;40157;42.566;27.526;2023-03-14T06:11:11;15.03;;;6.63;;
19507;SDS011;40157;42.566;27.526;2023-03-14T06:13:11;15.33;;;9.00;;
19507;SDS011;40157;42.566;27.526;2023-03-14T06:15:12;11.80;;;6.57;;
19507;SDS011;40157;42.566;27.526;2023-03-14T06:17:12;12.83;;;5.57;;
19507;SDS011;40157;42.566;27.526;2023-03-14T06:19:12;11.43;;;6.00;;
19507;SDS011;40157;42.566;27.526;2023-03-14T06:21:13;13.33;;;7.53;;
19507;SDS011;40157;42.566;27.526;2023-03-14T06:23:13;17.23;;;9.63;;
19507;SDS011;40157;42.566;27.526;2023-03-14T06:25:14;10.43;;;5.93;;
19507;SDS011;40157;42.566;27.526;2023-03-14T06:27:15;10.33;;;4.90;;
19507;SDS011;40157;42.566;27.526;2023-03-14T06:29:15;6.93;;;4.47;;
19507;SDS011;40157;42.566;27.526;2023-03-14T06:31:16;8.07;;;3.83;;
19507;SDS011;40157;42.566;27.526;2023-03-14T06:33:17;10.83;;;5.53;;
19507;SDS011;40157;42.566;27.526;2023-03-14T06:35:17;22.60;;;16.37;;
19507;SDS011;40157;42.566;27.526;2023-03-14T06:37:18;26.23;;;14.90;;
19507;SDS011;40157;42.566;27.526;2023-03-14T06:39:18;9.83;;;5.53;;
19507;SDS011;40157;42.566;27.526;2023-03-14T06:41:19;14.03;;;6.00;;
19507;SDS011;40157;42.566;27.526;2023-03-14T06:43:19;11.87;;;5.43;;
19507;SDS011;40157;42.566;27.526;2023-03-14T06:45:20;14.83;;;7.83;;
19507;SDS011;40157;42.566;27.526;2023-03-14T06:47:20;16.63;;;7.90;;
19507;SDS011;40157;42.566;27.526;2023-03-14T06:49:21;25.70;;;10.20;;
19507;SDS011;40157;42.566;27.526;2023-03-14T06:51:21;22.33;;;11.93;;
19507;SDS011;40157;42.566;27.526;2023-03-14T06:53:22;16.43;;;8.33;;
19507;SDS011;40157;42.566;27.526;2023-03-14T06:55:22;11.27;;;5.63;;
19507;SDS011;40157;42.566;27.526;2023-03-14T06:57:23;11.40;;;4.93;;
19507;SDS011;40157;42.566;27.526;2023-03-14T06:59:23;9.47;;;4.70;;
19507;SDS011;40157;42.566;27.526;2023-03-14T07:01:25;10.77;;;4.57;;
19507;SDS011;40157;42.566;27.526;2023-03-14T07:03:27;8.13;;;4.23;;
19507;SDS011;40157;42.566;27.526;2023-03-14T07:05:28;9.37;;;5.30;;
19507;SDS011;40157;42.566;27.526;2023-03-14T07:07:28;12.27;;;5.87;;
19507;SDS011;40157;42.566;27.526;2023-03-14T07:09:29;12.33;;;5.57;;
19507;SDS011;40157;42.566;27.526;2023-03-14T07:11:30;11.57;;;5.37;;
19507;SDS011;40157;42.566;27.526;2023-03-14T07:13:30;11.97;;;6.77;;
19507;SDS011;40157;42.566;27.526;2023-03-14T07:15:31;13.00;;;6.60;;
19507;SDS011;40157;42.566;27.526;2023-03-14T07:17:31;9.73;;;5.80;;
19507;SDS011;40157;42.566;27.526;2023-03-14T07:19:32;6.70;;;4.53;;
19507;SDS011;40157;42.566;27.526;2023-03-14T07:21:32;7.60;;;3.77;;
19507;SDS011;40157;42.566;27.526;2023-03-14T07:23:34;9.40;;;4.50;;
19507;SDS011;40157;42.566;27.526;2023-03-14T07:25:35;9.37;;;3.67;;
19507;SDS011;40157;42.566;27.526;2023-03-14T07:27:35;5.43;;;3.37;;
19507;SDS011;40157;42.566;27.526;2023-03-14T07:29:36;8.30;;;4.07;;
19507;SDS011;40157;42.566;27.526;2023-03-14T07:31:36;6.87;;;3.37;;
19507;SDS011;40157;42.566;27.526;2023-03-14T07:33:37;10.90;;;4.20;;
19507;SDS011;40157;42.566;27.526;2023-03-14T07:35:37;8.63;;;3.80;;
19507;SDS011;40157;42.566;27.526;2023-03-14T07:37:38;7.07;;;3.47;;
19507;SDS011;40157;42.566;27.526;2023-03-14T07:39:38;11.07;;;3.53;;
19507;SDS011;40157;42.566;27.526;2023-03-14T07:41:39;6.40;;;3.40;;
19507;SDS011;40157;42.566;27.526;2023-03-14T07:43:39;8.80;;;3.13;;
19507;SDS011;40157;42.566;27.526;2023-03-14T07:45:40;13.37;;;5.17;;
19507;SDS011;40157;42.566;27.526;2023-03-14T07:47:41;7.57;;;4.20;;
19507;SDS011;40157;42.566;27.526;2023-03-14T07:49:41;6.67;;;3.80;;
19507;SDS011;40157;42.566;27.526;2023-03-14T07:51:42;4.13;;;2.80;;
19507;SDS011;40157;42.566;27.526;2023-03-14T07:53:44;10.80;;;3.20;;
19507;SDS011;40157;42.566;27.526;2023-03-14T07:55:45;7.00;;;3.13;;
19507;SDS011;40157;42.566;27.526;2023-03-14T07:57:46;6.60;;;3.30;;
19507;SDS011;40157;42.566;27.526;2023-03-14T07:59:46;9.70;;;3.60;;
19507;SDS011;40157;42.566;27.526;2023-03-14T08:01:47;10.87;;;3.40;;
19507;SDS011;40157;42.566;27.526;2023-03-14T08:03:47;5.30;;;2.70;;
19507;SDS011;40157;42.566;27.526;2023-03-14T08:05:48;18.20;;;5.37;;
19507;SDS011;40157;42.566;27.526;2023-03-14T08:07:50;11.27;;;5.63;;
19507;SDS011;40157;42.566;27.526;2023-03-14T08:09:50;14.57;;;3.83;;
19507;SDS011;40157;42.566;27.526;2023-03-14T08:11:51;4.27;;;2.57;;
19507;SDS011;40157;42.566;27.526;2023-03-14T08:13:51;7.80;;;4.03;;
19507;SDS011;40157;42.566;27.526;2023-03-14T08:15:52;8.73;;;5.07;;
19507;SDS011;40157;42.566;27.526;2023-03-14T08:17:52;7.10;;;3.33;;
19507;SDS011;40157;42.566;27.526;2023-03-14T08:19:53;8.83;;;2.70;;
19507;SDS011;40157;42.566;27.526;2023-03-14T08:21:54;10.93;;;3.13;;
19507;SDS011;40157;42.566;27.526;2023-03-14T08:23:54;9.17;;;4.13;;
19507;SDS011;40157;42.566;27.526;2023-03-14T08:25:55;9.07;;;4.23;;
19507;SDS011;40157;42.566;27.526;2023-03-14T08:27:55;4.10;;;2.77;;
19507;SDS011;40157;42.566;27.526;2023-03-14T08:29:56;2.57;;;1.43;;
19507;SDS011;40157;42.566;27.526;2023-03-14T08:31:57;4.80;;;1.57;;
19507;SDS011;40157;42.566;27.526;2023-03-14T08:34:00;4.43;;;1.40;;
19507;SDS011;40157;42.566;27.526;2023-03-14T08:36:01;4.37;;;1.23;;
19507;SDS011;40157;42.566;27.526;2023-03-14T08:38:02;7.53;;;1.60;;
19507;SDS011;40157;42.566;27.526;2023-03-14T08:40:03;4.33;;;1.87;;
19507;SDS011;40157;42.566;27.526;2023-03-14T08:42:06;4.63;;;1.30;;
19507;SDS011;40157;42.566;27.526;2023-03-14T08:44:07;6.90;;;1.50;;
19507;SDS011;40157;42.566;27.526;2023-03-14T08:46:08;2.67;;;1.10;;
19507;SDS011;40157;42.566;27.526;2023-03-14T08:48:08;5.10;;;1.70;;
19507;SDS011;40157;42.566;27.526;2023-03-14T08:50:09;3.97;;;1.53;;
19507;SDS011;40157;42.566;27.526;2023-03-14T08:52:10;3.73;;;1.40;;
19507;SDS011;40157;42.566;27.526;2023-03-14T08:54:11;3.27;;;1.07;;
19507;SDS011;40157;42.566;27.526;2023-03-14T08:56:12;3.33;;;1.90;;
19507;SDS011;40157;42.566;27.526;2023-03-14T08:58:13;4.73;;;1.80;;
19507;SDS011;40157;42.566;27.526;2023-03-14T09:00:13;5.33;;;2.53;;
19507;SDS011;40157;42.566;27.526;2023-03-14T09:02:15;10.17;;;3.80;;
19507;SDS011;40157;42.566;27.526;2023-03-14T09:04:15;5.97;;;2.60;;
19507;SDS011;40157;42.566;27.526;2023-03-14T09:06:16;9.10;;;2.60;;
19507;SDS011;40157;42.566;27.526;2023-03-14T09:08:19;5.43;;;2.37;;
19507;SDS011;40157;42.566;27.526;2023-03-14T09:10:20;6.33;;;2.27;;
19507;SDS011;40157;42.566;27.526;2023-03-14T09:12:20;4.07;;;1.70;;
19507;SDS011;40157;42.566;27.526;2023-03-14T09:14:21;4.60;;;1.63;;
19507;SDS011;40157;42.566;27.526;2023-03-14T09:16:21;4.00;;;2.23;;
19507;SDS011;40157;42.566;27.526;2023-03-14T09:18:22;3.60;;;1.93;;
19507;SDS011;40157;42.566;27.526;2023-03-14T09:20:23;2.87;;;2.00;;
19507;SDS011;40157;42.566;27.526;2023-03-14T09:22:23;3.87;;;1.90;;
19507;SDS011;40157;42.566;27.526;2023-03-14T09:24:24;3.83;;;1.73;;
19507;SDS011;40157;42.566;27.526;2023-03-14T09:26:24;3.57;;;1.90;;
19507;SDS011;40157;42.566;27.526;2023-03-14T09:28:25;10.40;;;2.17;;
19507;SDS011;40157;42.566;27.526;2023-03-14T09:30:25;3.13;;;1.70;;
19507;SDS011;40157;42.566;27.526;2023-03-14T09:32:26;4.63;;;1.50;;
19507;SDS011;40157;42.566;27.526;2023-03-14T09:34:26;5.00;;;1.80;;
19507;SDS011;40157;42.566;27.526;2023-03-14T09:36:27;2.73;;;1.70;;
19507;SDS011;40157;42.566;27.526;2023-03-14T09:38:27;2.93;;;1.20;;
19507;SDS011;40157;42.566;27.526;2023-03-14T09:40:31;2.23;;;1.40;;
19507;SDS011;40157;42.566;27.526;2023-03-14T09:42:34;5.37;;;2.17;;
19507;SDS011;40157;42.566;27.526;2023-03-14T09:44:39;5.73;;;2.27;;
19507;SDS011;40157;42.566;27.526;2023-03-14T09:46:51;4.00;;;1.90;;
19507;SDS011;40157;42.566;27.526;2023-03-14T09:48:53;3.20;;;1.33;;
19507;SDS011;40157;42.566;27.526;2023-03-14T09:50:54;3.73;;;1.27;;
19507;SDS011;40157;42.566;27.526;2023-03-14T09:52:59;4.63;;;2.27;;
19507;SDS011;40157;42.566;27.526;2023-03-14T09:55:03;5.40;;;2.17;;
19507;SDS011;40157;42.566;27.526;2023-03-14T09:57:05;5.90;;;1.97;;
19507;SDS011;40157;42.566;27.526;2023-03-14T09:59:11;4.17;;;1.83;;
19507;SDS011;40157;42.566;27.526;2023-03-14T10:01:15;4.23;;;1.83;;
19507;SDS011;40157;42.566;27.526;2023-03-14T10:03:34;5.87;;;1.80;;
19507;SDS011;40157;42.566;27.526;2023-03-14T10:05:35;7.13;;;2.00;;
19507;SDS011;40157;42.566;27.526;2023-03-14T10:07:36;4.07;;;2.37;;
19507;SDS011;40157;42.566;27.526;2023-03-14T10:09:38;5.13;;;2.30;;
19507;SDS011;40157;42.566;27.526;2023-03-14T10:11:39;4.47;;;1.97;;
19507;SDS011;40157;42.566;27.526;2023-03-14T10:13:47;4.50;;;1.60;;
19507;SDS011;40157;42.566;27.526;2023-03-14T10:17:59;3.07;;;1.60;;
19507;SDS011;40157;42.566;27.526;2023-03-14T10:20:01;3.60;;;2.00;;
19507;SDS011;40157;42.566;27.526;2023-03-14T10:22:03;3.13;;;2.10;;
19507;SDS011;40157;42.566;27.526;2023-03-14T10:24:09;7.63;;;2.67;;
19507;SDS011;40157;42.566;27.526;2023-03-14T10:26:14;9.57;;;3.17;;
19507;SDS011;40157;42.566;27.526;2023-03-14T10:28:27;3.50;;;1.93;;
19507;SDS011;40157;42.566;27.526;2023-03-14T10:30:45;2.97;;;1.37;;
19507;SDS011;40157;42.566;27.526;2023-03-14T10:32:45;3.37;;;1.40;;
19507;SDS011;40157;42.566;27.526;2023-03-14T10:34:46;3.63;;;1.30;;
19507;SDS011;40157;42.566;27.526;2023-03-14T10:37:14;6.23;;;1.80;;
19507;SDS011;40157;42.566;27.526;2023-03-14T10:39:22;3.00;;;1.87;;
19507;SDS011;40157;42.566;27.526;2023-03-14T10:41:26;6.60;;;1.83;;
19507;SDS011;40157;42.566;27.526;2023-03-14T10:43:34;6.83;;;1.77;;
19507;SDS011;40157;42.566;27.526;2023-03-14T10:45:40;5.83;;;1.90;;
19507;SDS011;40157;42.566;27.526;2023-03-14T10:47:51;6.23;;;2.00;;
19507;SDS011;40157;42.566;27.526;2023-03-14T10:49:52;5.63;;;1.87;;
19507;SDS011;40157;42.566;27.526;2023-03-14T10:51:52;2.80;;;1.50;;
19507;SDS011;40157;42.566;27.526;2023-03-14T10:55:56;3.57;;;1.73;;
19507;SDS011;40157;42.566;27.526;2023-03-14T10:57:57;12.37;;;3.83;;
19507;SDS011;40157;42.566;27.526;2023-03-14T10:59:58;5.70;;;2.20;;
19507;SDS011;40157;42.566;27.526;2023-03-14T11:01:59;4.90;;;2.07;;
19507;SDS011;40157;42.566;27.526;2023-03-14T11:04:37;2.67;;;1.47;;
19507;SDS011;40157;42.566;27.526;2023-03-14T11:11:23;6.87;;;2.80;;
19507;SDS011;40157;42.566;27.526;2023-03-14T11:27:17;4.83;;;2.27;;
19507;SDS011;40157;42.566;27.526;2023-03-14T11:32:04;6.67;;;2.00;;
19507;SDS011;40157;42.566;27.526;2023-03-14T11:36:40;5.33;;;2.20;;
19507;SDS011;40157;42.566;27.526;2023-03-14T11:38:47;3.97;;;1.80;;
19507;SDS011;40157;42.566;27.526;2023-03-14T11:40:53;5.13;;;2.00;;
19507;SDS011;40157;42.566;27.526;2023-03-14T11:43:09;5.97;;;2.50;;
19507;SDS011;40157;42.566;27.526;2023-03-14T11:45:19;4.60;;;1.67;;
19507;SDS011;40157;42.566;27.526;2023-03-14T11:47:26;6.87;;;2.13;;
19507;SDS011;40157;42.566;27.526;2023-03-14T11:49:38;3.73;;;2.27;;
19507;SDS011;40157;42.566;27.526;2023-03-14T11:51:46;6.87;;;2.07;;
19507;SDS011;40157;42.566;27.526;2023-03-14T11:53:53;5.53;;;2.17;;
19507;SDS011;40157;42.566;27.526;2023-03-14T11:55:58;5.00;;;1.97;;
19507;SDS011;40157;42.566;27.526;2023-03-14T11:58:13;7.53;;;2.27;;
19507;SDS011;40157;42.566;27.526;2023-03-14T12:00:20;7.63;;;2.20;;
19507;SDS011;40157;42.566;27.526;2023-03-14T12:06:49;5.33;;;1.57;;
19507;SDS011;40157;42.566;27.526;2023-03-14T12:11:19;8.83;;;2.70;;
19507;SDS011;40157;42.566;27.526;2023-03-14T12:13:21;8.23;;;1.80;;
19507;SDS011;40157;42.566;27.526;2023-03-14T12:15:21;6.30;;;1.97;;
19507;SDS011;40157;42.566;27.526;2023-03-14T12:17:27;4.27;;;1.63;;
19507;SDS011;40157;42.566;27.526;2023-03-14T12:19:36;4.97;;;1.90;;
19507;SDS011;40157;42.566;27.526;2023-03-14T12:21:47;4.43;;;1.57;;
19507;SDS011;40157;42.566;27.526;2023-03-14T12:23:51;3.83;;;1.50;;
19507;SDS011;40157;42.566;27.526;2023-03-14T12:28:21;3.67;;;1.97;;
19507;SDS011;40157;42.566;27.526;2023-03-14T12:30:38;3.43;;;1.43;;
19507;SDS011;40157;42.566;27.526;2023-03-14T12:32:42;2.80;;;1.50;;
19507;SDS011;40157;42.566;27.526;2023-03-14T12:34:42;2.30;;;1.30;;
19507;SDS011;40157;42.566;27.526;2023-03-14T12:39:01;5.63;;;1.30;;
19507;SDS011;40157;42.566;27.526;2023-03-14T12:43:35;3.73;;;1.23;;
19507;SDS011;40157;42.566;27.526;2023-03-14T12:45:37;9.13;;;1.43;;